sensor_id;sensor_type;location;lat;lon;timestamp;P1;durP1;ratioP1;P2;durP2;ratioP2
54853;SDS011;40747;49.480;8.658;2023-04-24T00:01:26;1.05;;;0.68;;
54853;SDS011;40747;49.480;8.658;2023-04-24T00:03:54;2.45;;;0.32;;
54853;SDS011;40747;49.480;8.658;2023-04-24T00:06:20;1.65;;;0.30;;
54853;SDS011;40747;49.480;8.658;2023-04-24T00:08:48;2.75;;;0.22;;
54853;SDS011;40747;49.480;8.658;2023-04-24T00:11:13;0.75;;;0.40;;
54853;SDS011;40747;49.480;8.658;2023-04-24T00:13:39;1.13;;;0.43;;
54853;SDS011;40747;49.480;8.658;2023-04-24T00:16:04;3.33;;;0.70;;
54853;SDS011;40747;49.480;8.658;2023-04-24T00:18:30;1.17;;;0.63;;
54853;SDS011;40747;49.480;8.658;2023-04-24T00:20:55;1.27;;;0.32;;
54853;SDS011;40747;49.480;8.658;2023-04-24T00:23:21;4.22;;;0.50;;
54853;SDS011;40747;49.480;8.658;2023-04-24T00:25:46;4.15;;;0.50;;
54853;SDS011;40747;49.480;8.658;2023-04-24T00:28:11;0.38;;;0.38;;
54853;SDS011;40747;49.480;8.658;2023-04-24T00:30:37;0.57;;;0.47;;
54853;SDS011;40747;49.480;8.658;2023-04-24T00:33:02;2.75;;;0.40;;
54853;SDS011;40747;49.480;8.658;2023-04-24T00:35:28;0.47;;;0.47;;
54853;SDS011;40747;49.480;8.658;2023-04-24T00:37:53;0.57;;;0.40;;
54853;SDS011;40747;49.480;8.658;2023-04-24T00:40:18;1.98;;;0.43;;
54853;SDS011;40747;49.480;8.658;2023-04-24T00:42:44;0.35;;;0.30;;
54853;SDS011;40747;49.480;8.658;2023-04-24T00:45:10;0.32;;;0.32;;
54853;SDS011;40747;49.480;8.658;2023-04-24T00:47:35;0.85;;;0.45;;
54853;SDS011;40747;49.480;8.658;2023-04-24T00:50:04;1.67;;;0.60;;
54853;SDS011;40747;49.480;8.658;2023-04-24T00:52:31;0.70;;;0.60;;
54853;SDS011;40747;49.480;8.658;2023-04-24T00:54:57;2.92;;;0.40;;
54853;SDS011;40747;49.480;8.658;2023-04-24T00:57:23;0.50;;;0.50;;
54853;SDS011;40747;49.480;8.658;2023-04-24T00:59:49;0.60;;;0.30;;
54853;SDS011;40747;49.480;8.658;2023-04-24T01:02:15;2.00;;;0.50;;
54853;SDS011;40747;49.480;8.658;2023-04-24T01:04:41;0.32;;;0.30;;
54853;SDS011;40747;49.480;8.658;2023-04-24T01:07:07;0.82;;;0.40;;
54853;SDS011;40747;49.480;8.658;2023-04-24T01:09:36;1.50;;;0.60;;
54853;SDS011;40747;49.480;8.658;2023-04-24T01:12:06;1.45;;;0.60;;
54853;SDS011;40747;49.480;8.658;2023-04-24T01:14:31;2.22;;;0.68;;
54853;SDS011;40747;49.480;8.658;2023-04-24T01:16:58;0.75;;;0.38;;
54853;SDS011;40747;49.480;8.658;2023-04-24T01:19:23;0.98;;;0.38;;
54853;SDS011;40747;49.480;8.658;2023-04-24T01:21:49;3.50;;;0.95;;
54853;SDS011;40747;49.480;8.658;2023-04-24T01:24:16;0.75;;;0.68;;
54853;SDS011;40747;49.480;8.658;2023-04-24T01:26:41;6.63;;;2.47;;
54853;SDS011;40747;49.480;8.658;2023-04-24T01:29:06;2.80;;;1.27;;
54853;SDS011;40747;49.480;8.658;2023-04-24T01:31:32;3.17;;;1.02;;
54853;SDS011;40747;49.480;8.658;2023-04-24T01:33:59;0.40;;;0.40;;
54853;SDS011;40747;49.480;8.658;2023-04-24T01:36:25;0.50;;;0.50;;
54853;SDS011;40747;49.480;8.658;2023-04-24T01:38:53;0.50;;;0.50;;
54853;SDS011;40747;49.480;8.658;2023-04-24T01:41:18;3.13;;;0.70;;
54853;SDS011;40747;49.480;8.658;2023-04-24T01:43:45;0.38;;;0.38;;
54853;SDS011;40747;49.480;8.658;2023-04-24T01:46:10;1.95;;;0.65;;
54853;SDS011;40747;49.480;8.658;2023-04-24T01:48:36;1.20;;;0.60;;
54853;SDS011;40747;49.480;8.658;2023-04-24T01:51:01;1.63;;;0.47;;
54853;SDS011;40747;49.480;8.658;2023-04-24T01:53:26;0.30;;;0.30;;
54853;SDS011;40747;49.480;8.658;2023-04-24T01:55:52;0.25;;;0.25;;
54853;SDS011;40747;49.480;8.658;2023-04-24T01:58:17;0.32;;;0.30;;
54853;SDS011;40747;49.480;8.658;2023-04-24T02:00:43;1.05;;;0.50;;
54853;SDS011;40747;49.480;8.658;2023-04-24T02:03:08;0.80;;;0.40;;
54853;SDS011;40747;49.480;8.658;2023-04-24T02:05:33;0.40;;;0.40;;
54853;SDS011;40747;49.480;8.658;2023-04-24T02:07:59;0.95;;;0.50;;
54853;SDS011;40747;49.480;8.658;2023-04-24T02:10:24;0.70;;;0.47;;
54853;SDS011;40747;49.480;8.658;2023-04-24T02:12:50;0.88;;;0.40;;
54853;SDS011;40747;49.480;8.658;2023-04-24T02:15:15;2.72;;;0.68;;
54853;SDS011;40747;49.480;8.658;2023-04-24T02:17:41;0.50;;;0.47;;
54853;SDS011;40747;49.480;8.658;2023-04-24T02:20:06;2.10;;;0.80;;
54853;SDS011;40747;49.480;8.658;2023-04-24T02:22:32;0.35;;;0.35;;
54853;SDS011;40747;49.480;8.658;2023-04-24T02:24:57;4.78;;;0.50;;
54853;SDS011;40747;49.480;8.658;2023-04-24T02:27:22;1.30;;;0.50;;
54853;SDS011;40747;49.480;8.658;2023-04-24T02:29:48;0.90;;;0.60;;
54853;SDS011;40747;49.480;8.658;2023-04-24T02:32:13;3.65;;;0.70;;
54853;SDS011;40747;49.480;8.658;2023-04-24T02:34:40;1.13;;;0.93;;
54853;SDS011;40747;49.480;8.658;2023-04-24T02:37:05;3.13;;;0.60;;
54853;SDS011;40747;49.480;8.658;2023-04-24T02:39:31;1.30;;;0.47;;
54853;SDS011;40747;49.480;8.658;2023-04-24T02:41:56;2.08;;;0.82;;
54853;SDS011;40747;49.480;8.658;2023-04-24T02:44:21;1.10;;;0.63;;
54853;SDS011;40747;49.480;8.658;2023-04-24T02:46:47;4.63;;;0.45;;
54853;SDS011;40747;49.480;8.658;2023-04-24T02:49:12;0.80;;;0.45;;
54853;SDS011;40747;49.480;8.658;2023-04-24T02:51:38;0.65;;;0.40;;
54853;SDS011;40747;49.480;8.658;2023-04-24T02:54:05;1.13;;;0.55;;
54853;SDS011;40747;49.480;8.658;2023-04-24T02:56:31;0.63;;;0.30;;
54853;SDS011;40747;49.480;8.658;2023-04-24T02:58:56;1.00;;;0.55;;
54853;SDS011;40747;49.480;8.658;2023-04-24T03:01:22;2.85;;;0.80;;
54853;SDS011;40747;49.480;8.658;2023-04-24T03:03:47;1.45;;;0.80;;
54853;SDS011;40747;49.480;8.658;2023-04-24T03:06:12;1.80;;;0.65;;
54853;SDS011;40747;49.480;8.658;2023-04-24T03:08:38;4.45;;;1.73;;
54853;SDS011;40747;49.480;8.658;2023-04-24T03:11:03;2.17;;;0.80;;
54853;SDS011;40747;49.480;8.658;2023-04-24T03:13:28;6.03;;;0.90;;
54853;SDS011;40747;49.480;8.658;2023-04-24T03:15:53;1.90;;;0.82;;
54853;SDS011;40747;49.480;8.658;2023-04-24T03:18:19;6.32;;;1.23;;
54853;SDS011;40747;49.480;8.658;2023-04-24T03:20:47;2.47;;;0.65;;
54853;SDS011;40747;49.480;8.658;2023-04-24T03:23:13;1.42;;;0.90;;
54853;SDS011;40747;49.480;8.658;2023-04-24T03:25:38;1.88;;;0.50;;
54853;SDS011;40747;49.480;8.658;2023-04-24T03:28:03;0.98;;;0.85;;
54853;SDS011;40747;49.480;8.658;2023-04-24T03:30:29;1.33;;;0.77;;
54853;SDS011;40747;49.480;8.658;2023-04-24T03:32:55;1.35;;;1.08;;
54853;SDS011;40747;49.480;8.658;2023-04-24T03:35:20;0.85;;;0.77;;
54853;SDS011;40747;49.480;8.658;2023-04-24T03:37:46;3.90;;;1.40;;
54853;SDS011;40747;49.480;8.658;2023-04-24T03:40:12;1.25;;;0.70;;
54853;SDS011;40747;49.480;8.658;2023-04-24T03:42:37;0.70;;;0.68;;
54853;SDS011;40747;49.480;8.658;2023-04-24T03:45:03;1.95;;;1.08;;
54853;SDS011;40747;49.480;8.658;2023-04-24T03:47:28;1.27;;;0.90;;
54853;SDS011;40747;49.480;8.658;2023-04-24T03:49:53;1.77;;;1.05;;
54853;SDS011;40747;49.480;8.658;2023-04-24T03:52:20;1.73;;;1.00;;
54853;SDS011;40747;49.480;8.658;2023-04-24T03:54:46;1.27;;;0.88;;
54853;SDS011;40747;49.480;8.658;2023-04-24T03:57:11;1.45;;;0.80;;
54853;SDS011;40747;49.480;8.658;2023-04-24T03:59:36;1.02;;;0.88;;
54853;SDS011;40747;49.480;8.658;2023-04-24T04:02:01;1.85;;;0.80;;
54853;SDS011;40747;49.480;8.658;2023-04-24T04:04:27;1.58;;;0.80;;
54853;SDS011;40747;49.480;8.658;2023-04-24T04:06:52;1.42;;;0.82;;
54853;SDS011;40747;49.480;8.658;2023-04-24T04:09:18;2.10;;;0.85;;
54853;SDS011;40747;49.480;8.658;2023-04-24T04:11:43;2.58;;;0.98;;
54853;SDS011;40747;49.480;8.658;2023-04-24T04:14:08;0.93;;;0.82;;
54853;SDS011;40747;49.480;8.658;2023-04-24T04:16:34;1.75;;;1.02;;
54853;SDS011;40747;49.480;8.658;2023-04-24T04:19:01;1.05;;;0.80;;
54853;SDS011;40747;49.480;8.658;2023-04-24T04:21:27;5.65;;;1.23;;
54853;SDS011;40747;49.480;8.658;2023-04-24T04:23:53;1.17;;;0.95;;
54853;SDS011;40747;49.480;8.658;2023-04-24T04:26:18;2.42;;;1.33;;
54853;SDS011;40747;49.480;8.658;2023-04-24T04:28:46;1.58;;;0.98;;
54853;SDS011;40747;49.480;8.658;2023-04-24T04:31:12;1.35;;;1.23;;
54853;SDS011;40747;49.480;8.658;2023-04-24T04:33:38;1.00;;;0.90;;
54853;SDS011;40747;49.480;8.658;2023-04-24T04:36:04;2.08;;;1.20;;
54853;SDS011;40747;49.480;8.658;2023-04-24T04:38:30;2.00;;;1.35;;
54853;SDS011;40747;49.480;8.658;2023-04-24T04:40:55;1.20;;;0.95;;
54853;SDS011;40747;49.480;8.658;2023-04-24T04:43:24;1.52;;;1.00;;
54853;SDS011;40747;49.480;8.658;2023-04-24T04:45:49;3.95;;;1.30;;
54853;SDS011;40747;49.480;8.658;2023-04-24T04:48:16;1.65;;;1.10;;
54853;SDS011;40747;49.480;8.658;2023-04-24T04:50:42;1.83;;;1.15;;
54853;SDS011;40747;49.480;8.658;2023-04-24T04:53:08;3.40;;;1.30;;
54853;SDS011;40747;49.480;8.658;2023-04-24T04:55:33;4.13;;;1.02;;
54853;SDS011;40747;49.480;8.658;2023-04-24T04:57:58;1.90;;;1.25;;
54853;SDS011;40747;49.480;8.658;2023-04-24T05:00:25;2.45;;;1.60;;
54853;SDS011;40747;49.480;8.658;2023-04-24T05:02:50;1.10;;;0.85;;
54853;SDS011;40747;49.480;8.658;2023-04-24T05:05:16;3.58;;;1.23;;
54853;SDS011;40747;49.480;8.658;2023-04-24T05:07:42;2.67;;;1.45;;
54853;SDS011;40747;49.480;8.658;2023-04-24T05:10:08;1.40;;;1.02;;
54853;SDS011;40747;49.480;8.658;2023-04-24T05:12:34;3.00;;;1.67;;
54853;SDS011;40747;49.480;8.658;2023-04-24T05:14:59;3.78;;;1.73;;
54853;SDS011;40747;49.480;8.658;2023-04-24T05:17:24;2.83;;;1.65;;
54853;SDS011;40747;49.480;8.658;2023-04-24T05:19:50;1.58;;;1.08;;
54853;SDS011;40747;49.480;8.658;2023-04-24T05:22:16;1.73;;;1.27;;
54853;SDS011;40747;49.480;8.658;2023-04-24T05:24:43;3.13;;;1.33;;
54853;SDS011;40747;49.480;8.658;2023-04-24T05:27:08;3.58;;;1.33;;
54853;SDS011;40747;49.480;8.658;2023-04-24T05:29:34;6.28;;;1.55;;
54853;SDS011;40747;49.480;8.658;2023-04-24T05:32:00;2.33;;;1.23;;
54853;SDS011;40747;49.480;8.658;2023-04-24T05:34:25;1.95;;;1.25;;
54853;SDS011;40747;49.480;8.658;2023-04-24T05:36:51;2.03;;;1.40;;
54853;SDS011;40747;49.480;8.658;2023-04-24T05:39:16;2.63;;;1.63;;
54853;SDS011;40747;49.480;8.658;2023-04-24T05:41:42;2.78;;;1.95;;
54853;SDS011;40747;49.480;8.658;2023-04-24T05:44:08;2.72;;;1.80;;
54853;SDS011;40747;49.480;8.658;2023-04-24T05:46:33;3.33;;;2.05;;
54853;SDS011;40747;49.480;8.658;2023-04-24T05:48:59;2.50;;;1.40;;
54853;SDS011;40747;49.480;8.658;2023-04-24T05:51:24;2.92;;;1.83;;
54853;SDS011;40747;49.480;8.658;2023-04-24T05:53:49;2.65;;;1.70;;
54853;SDS011;40747;49.480;8.658;2023-04-24T05:56:15;3.13;;;2.00;;
54853;SDS011;40747;49.480;8.658;2023-04-24T05:58:40;1.98;;;1.65;;
54853;SDS011;40747;49.480;8.658;2023-04-24T06:01:06;1.60;;;1.50;;
54853;SDS011;40747;49.480;8.658;2023-04-24T06:03:31;4.03;;;1.75;;
54853;SDS011;40747;49.480;8.658;2023-04-24T06:05:57;2.25;;;1.55;;
54853;SDS011;40747;49.480;8.658;2023-04-24T06:08:22;3.05;;;1.95;;
54853;SDS011;40747;49.480;8.658;2023-04-24T06:10:47;2.28;;;1.95;;
54853;SDS011;40747;49.480;8.658;2023-04-24T06:13:12;2.78;;;1.63;;
54853;SDS011;40747;49.480;8.658;2023-04-24T06:15:38;3.85;;;2.25;;
54853;SDS011;40747;49.480;8.658;2023-04-24T06:18:03;3.35;;;2.17;;
54853;SDS011;40747;49.480;8.658;2023-04-24T06:20:28;3.85;;;2.28;;
54853;SDS011;40747;49.480;8.658;2023-04-24T06:22:54;2.58;;;1.85;;
54853;SDS011;40747;49.480;8.658;2023-04-24T06:25:19;6.78;;;2.38;;
54853;SDS011;40747;49.480;8.658;2023-04-24T06:27:44;3.25;;;2.13;;
54853;SDS011;40747;49.480;8.658;2023-04-24T06:30:10;3.55;;;2.13;;
54853;SDS011;40747;49.480;8.658;2023-04-24T06:32:36;3.75;;;2.05;;
54853;SDS011;40747;49.480;8.658;2023-04-24T06:35:01;3.20;;;2.50;;
54853;SDS011;40747;49.480;8.658;2023-04-24T06:37:26;5.68;;;2.85;;
54853;SDS011;40747;49.480;8.658;2023-04-24T06:39:52;4.18;;;3.10;;
54853;SDS011;40747;49.480;8.658;2023-04-24T06:42:17;2.97;;;2.13;;
54853;SDS011;40747;49.480;8.658;2023-04-24T06:44:45;6.50;;;2.35;;
54853;SDS011;40747;49.480;8.658;2023-04-24T06:47:11;3.10;;;2.15;;
54853;SDS011;40747;49.480;8.658;2023-04-24T06:49:38;4.32;;;2.20;;
54853;SDS011;40747;49.480;8.658;2023-04-24T06:52:04;3.25;;;2.03;;
54853;SDS011;40747;49.480;8.658;2023-04-24T06:54:30;1.60;;;1.27;;
54853;SDS011;40747;49.480;8.658;2023-04-24T06:56:56;1.58;;;1.25;;
54853;SDS011;40747;49.480;8.658;2023-04-24T06:59:22;1.80;;;1.38;;
54853;SDS011;40747;49.480;8.658;2023-04-24T07:01:51;2.00;;;1.20;;
54853;SDS011;40747;49.480;8.658;2023-04-24T07:04:16;1.35;;;0.90;;
54853;SDS011;40747;49.480;8.658;2023-04-24T07:06:42;2.05;;;1.02;;
54853;SDS011;40747;49.480;8.658;2023-04-24T07:09:10;4.05;;;0.93;;
54853;SDS011;40747;49.480;8.658;2023-04-24T07:11:36;1.23;;;0.93;;
54853;SDS011;40747;49.480;8.658;2023-04-24T07:14:03;1.42;;;0.93;;
54853;SDS011;40747;49.480;8.658;2023-04-24T07:16:28;1.70;;;0.93;;
54853;SDS011;40747;49.480;8.658;2023-04-24T07:18:55;0.85;;;0.85;;
54853;SDS011;40747;49.480;8.658;2023-04-24T07:21:20;1.38;;;0.85;;
54853;SDS011;40747;49.480;8.658;2023-04-24T07:23:45;0.90;;;0.90;;
54853;SDS011;40747;49.480;8.658;2023-04-24T07:26:10;2.15;;;0.82;;
54853;SDS011;40747;49.480;8.658;2023-04-24T07:28:36;1.45;;;0.88;;
54853;SDS011;40747;49.480;8.658;2023-04-24T07:31:01;0.73;;;0.73;;
54853;SDS011;40747;49.480;8.658;2023-04-24T07:33:26;0.90;;;0.70;;
54853;SDS011;40747;49.480;8.658;2023-04-24T07:35:52;0.70;;;0.70;;
54853;SDS011;40747;49.480;8.658;2023-04-24T07:38:17;3.00;;;0.70;;
54853;SDS011;40747;49.480;8.658;2023-04-24T07:40:46;0.80;;;0.75;;
54853;SDS011;40747;49.480;8.658;2023-04-24T07:43:11;1.27;;;0.95;;
54853;SDS011;40747;49.480;8.658;2023-04-24T07:45:37;1.45;;;0.90;;
54853;SDS011;40747;49.480;8.658;2023-04-24T07:48:02;1.23;;;1.02;;
54853;SDS011;40747;49.480;8.658;2023-04-24T07:50:28;1.08;;;0.98;;
54853;SDS011;40747;49.480;8.658;2023-04-24T07:52:53;1.15;;;0.60;;
54853;SDS011;40747;49.480;8.658;2023-04-24T07:55:19;0.68;;;0.68;;
54853;SDS011;40747;49.480;8.658;2023-04-24T07:57:44;2.53;;;1.50;;
54853;SDS011;40747;49.480;8.658;2023-04-24T08:00:10;1.25;;;0.90;;
54853;SDS011;40747;49.480;8.658;2023-04-24T08:02:35;0.88;;;0.82;;
54853;SDS011;40747;49.480;8.658;2023-04-24T08:05:01;1.92;;;1.13;;
54853;SDS011;40747;49.480;8.658;2023-04-24T08:07:28;0.52;;;0.52;;
54853;SDS011;40747;49.480;8.658;2023-04-24T08:09:53;1.52;;;1.00;;
54853;SDS011;40747;49.480;8.658;2023-04-24T08:12:18;1.73;;;1.40;;
54853;SDS011;40747;49.480;8.658;2023-04-24T08:14:44;0.98;;;0.77;;
54853;SDS011;40747;49.480;8.658;2023-04-24T08:17:09;0.75;;;0.70;;
54853;SDS011;40747;49.480;8.658;2023-04-24T08:19:35;1.02;;;0.90;;
54853;SDS011;40747;49.480;8.658;2023-04-24T08:22:00;1.65;;;0.95;;
54853;SDS011;40747;49.480;8.658;2023-04-24T08:24:25;1.45;;;1.00;;
54853;SDS011;40747;49.480;8.658;2023-04-24T08:26:51;1.67;;;0.90;;
54853;SDS011;40747;49.480;8.658;2023-04-24T08:29:17;3.97;;;1.00;;
54853;SDS011;40747;49.480;8.658;2023-04-24T08:31:42;2.63;;;1.42;;
54853;SDS011;40747;49.480;8.658;2023-04-24T08:34:08;0.88;;;0.75;;
54853;SDS011;40747;49.480;8.658;2023-04-24T08:36:34;1.02;;;0.80;;
54853;SDS011;40747;49.480;8.658;2023-04-24T08:39:00;0.88;;;0.77;;
54853;SDS011;40747;49.480;8.658;2023-04-24T08:41:25;1.88;;;1.33;;
54853;SDS011;40747;49.480;8.658;2023-04-24T08:43:52;3.55;;;0.80;;
54853;SDS011;40747;49.480;8.658;2023-04-24T08:46:17;1.42;;;1.20;;
54853;SDS011;40747;49.480;8.658;2023-04-24T08:48:44;1.35;;;1.10;;
54853;SDS011;40747;49.480;8.658;2023-04-24T08:51:10;1.70;;;1.05;;
54853;SDS011;40747;49.480;8.658;2023-04-24T08:53:36;2.50;;;1.00;;
54853;SDS011;40747;49.480;8.658;2023-04-24T08:56:01;1.50;;;1.20;;
54853;SDS011;40747;49.480;8.658;2023-04-24T08:58:28;3.70;;;0.98;;
54853;SDS011;40747;49.480;8.658;2023-04-24T09:00:54;1.63;;;1.10;;
54853;SDS011;40747;49.480;8.658;2023-04-24T09:03:20;1.40;;;0.90;;
54853;SDS011;40747;49.480;8.658;2023-04-24T09:05:47;1.35;;;1.10;;
54853;SDS011;40747;49.480;8.658;2023-04-24T09:08:14;1.40;;;0.93;;
54853;SDS011;40747;49.480;8.658;2023-04-24T09:10:42;1.35;;;1.10;;
54853;SDS011;40747;49.480;8.658;2023-04-24T09:13:08;1.60;;;1.30;;
54853;SDS011;40747;49.480;8.658;2023-04-24T09:15:35;1.30;;;1.20;;
54853;SDS011;40747;49.480;8.658;2023-04-24T09:18:01;1.15;;;1.05;;
54853;SDS011;40747;49.480;8.658;2023-04-24T09:20:26;1.80;;;1.20;;
54853;SDS011;40747;49.480;8.658;2023-04-24T09:22:56;1.67;;;1.35;;
54853;SDS011;40747;49.480;8.658;2023-04-24T09:25:22;0.85;;;0.82;;
54853;SDS011;40747;49.480;8.658;2023-04-24T09:27:48;1.67;;;1.38;;
54853;SDS011;40747;49.480;8.658;2023-04-24T09:30:13;1.60;;;1.30;;
54853;SDS011;40747;49.480;8.658;2023-04-24T09:32:45;1.73;;;1.30;;
54853;SDS011;40747;49.480;8.658;2023-04-24T09:35:11;2.03;;;1.45;;
54853;SDS011;40747;49.480;8.658;2023-04-24T09:37:39;2.03;;;1.20;;
54853;SDS011;40747;49.480;8.658;2023-04-24T09:40:17;1.50;;;1.00;;
54853;SDS011;40747;49.480;8.658;2023-04-24T09:42:44;1.58;;;1.23;;
54853;SDS011;40747;49.480;8.658;2023-04-24T09:45:20;3.92;;;1.15;;
54853;SDS011;40747;49.480;8.658;2023-04-24T09:47:45;1.83;;;1.13;;
54853;SDS011;40747;49.480;8.658;2023-04-24T09:50:11;1.63;;;1.05;;
54853;SDS011;40747;49.480;8.658;2023-04-24T09:52:44;0.85;;;0.85;;
54853;SDS011;40747;49.480;8.658;2023-04-24T09:55:16;1.27;;;1.15;;
54853;SDS011;40747;49.480;8.658;2023-04-24T09:57:47;1.67;;;1.20;;
54853;SDS011;40747;49.480;8.658;2023-04-24T10:02:50;1.83;;;1.45;;
54853;SDS011;40747;49.480;8.658;2023-04-24T10:05:16;1.77;;;1.45;;
54853;SDS011;40747;49.480;8.658;2023-04-24T10:07:43;1.65;;;1.08;;
54853;SDS011;40747;49.480;8.658;2023-04-24T10:10:09;1.17;;;0.88;;
54853;SDS011;40747;49.480;8.658;2023-04-24T10:12:34;5.25;;;1.30;;
54853;SDS011;40747;49.480;8.658;2023-04-24T10:15:00;1.63;;;1.35;;
54853;SDS011;40747;49.480;8.658;2023-04-24T10:17:27;2.38;;;1.23;;
54853;SDS011;40747;49.480;8.658;2023-04-24T10:19:53;1.38;;;1.00;;
54853;SDS011;40747;49.480;8.658;2023-04-24T10:22:20;2.08;;;1.30;;
54853;SDS011;40747;49.480;8.658;2023-04-24T10:24:47;1.73;;;1.20;;
54853;SDS011;40747;49.480;8.658;2023-04-24T10:27:15;2.22;;;1.40;;
54853;SDS011;40747;49.480;8.658;2023-04-24T10:29:41;2.00;;;1.17;;
54853;SDS011;40747;49.480;8.658;2023-04-24T10:32:08;2.25;;;1.10;;
54853;SDS011;40747;49.480;8.658;2023-04-24T10:34:36;2.40;;;0.80;;
54853;SDS011;40747;49.480;8.658;2023-04-24T10:37:01;1.83;;;1.00;;
54853;SDS011;40747;49.480;8.658;2023-04-24T10:39:27;0.88;;;0.60;;
54853;SDS011;40747;49.480;8.658;2023-04-24T10:41:54;1.65;;;0.73;;
54853;SDS011;40747;49.480;8.658;2023-04-24T10:44:22;0.90;;;0.60;;
54853;SDS011;40747;49.480;8.658;2023-04-24T10:46:53;5.80;;;0.60;;
54853;SDS011;40747;49.480;8.658;2023-04-24T10:49:29;1.02;;;0.80;;
54853;SDS011;40747;49.480;8.658;2023-04-24T10:52:00;1.63;;;0.90;;
54853;SDS011;40747;49.480;8.658;2023-04-24T10:59:45;1.20;;;0.90;;
54853;SDS011;40747;49.480;8.658;2023-04-24T11:02:11;2.03;;;1.20;;
54853;SDS011;40747;49.480;8.658;2023-04-24T11:04:40;1.98;;;0.73;;
54853;SDS011;40747;49.480;8.658;2023-04-24T11:07:08;2.80;;;0.95;;
54853;SDS011;40747;49.480;8.658;2023-04-24T11:09:34;1.65;;;0.90;;
54853;SDS011;40747;49.480;8.658;2023-04-24T11:12:05;1.42;;;1.08;;
54853;SDS011;40747;49.480;8.658;2023-04-24T11:20:00;1.98;;;1.13;;
54853;SDS011;40747;49.480;8.658;2023-04-24T11:22:26;1.83;;;1.00;;
54853;SDS011;40747;49.480;8.658;2023-04-24T11:24:56;2.90;;;1.35;;
54853;SDS011;40747;49.480;8.658;2023-04-24T11:27:22;2.03;;;0.95;;
54853;SDS011;40747;49.480;8.658;2023-04-24T11:29:48;1.63;;;1.10;;
54853;SDS011;40747;49.480;8.658;2023-04-24T11:37:47;1.83;;;1.20;;
54853;SDS011;40747;49.480;8.658;2023-04-24T11:40:14;1.42;;;1.00;;
54853;SDS011;40747;49.480;8.658;2023-04-24T11:42:42;3.50;;;1.50;;
54853;SDS011;40747;49.480;8.658;2023-04-24T11:45:13;2.50;;;1.73;;
54853;SDS011;40747;49.480;8.658;2023-04-24T11:47:40;5.60;;;1.48;;
54853;SDS011;40747;49.480;8.658;2023-04-24T11:50:08;1.42;;;1.17;;
54853;SDS011;40747;49.480;8.658;2023-04-24T11:52:40;3.78;;;1.65;;
54853;SDS011;40747;49.480;8.658;2023-04-24T11:55:07;3.65;;;2.05;;
54853;SDS011;40747;49.480;8.658;2023-04-24T11:57:48;3.75;;;1.52;;
54853;SDS011;40747;49.480;8.658;2023-04-24T12:00:15;2.28;;;2.00;;
54853;SDS011;40747;49.480;8.658;2023-04-24T12:02:43;3.10;;;1.40;;
54853;SDS011;40747;49.480;8.658;2023-04-24T12:05:09;4.20;;;2.03;;
54853;SDS011;40747;49.480;8.658;2023-04-24T12:07:42;2.60;;;1.88;;
54853;SDS011;40747;49.480;8.658;2023-04-24T12:10:08;9.10;;;1.88;;
54853;SDS011;40747;49.480;8.658;2023-04-24T12:12:34;3.28;;;1.58;;
54853;SDS011;40747;49.480;8.658;2023-04-24T12:14:59;3.45;;;1.98;;
54853;SDS011;40747;49.480;8.658;2023-04-24T12:17:26;2.05;;;1.65;;
54853;SDS011;40747;49.480;8.658;2023-04-24T12:19:59;2.10;;;1.45;;
54853;SDS011;40747;49.480;8.658;2023-04-24T12:22:28;2.05;;;1.77;;
54853;SDS011;40747;49.480;8.658;2023-04-24T12:25:17;5.70;;;1.63;;
54853;SDS011;40747;49.480;8.658;2023-04-24T12:27:51;2.65;;;1.92;;
54853;SDS011;40747;49.480;8.658;2023-04-24T12:30:21;2.30;;;1.63;;
54853;SDS011;40747;49.480;8.658;2023-04-24T12:32:51;3.25;;;1.55;;
54853;SDS011;40747;49.480;8.658;2023-04-24T12:35:20;7.40;;;2.15;;
54853;SDS011;40747;49.480;8.658;2023-04-24T12:37:47;3.67;;;1.92;;
54853;SDS011;40747;49.480;8.658;2023-04-24T12:40:12;1.85;;;1.52;;
54853;SDS011;40747;49.480;8.658;2023-04-24T12:42:42;3.10;;;1.58;;
54853;SDS011;40747;49.480;8.658;2023-04-24T12:45:12;2.97;;;1.90;;
54853;SDS011;40747;49.480;8.658;2023-04-24T12:47:38;3.00;;;2.03;;
54853;SDS011;40747;49.480;8.658;2023-04-24T12:50:05;2.10;;;1.35;;
54853;SDS011;40747;49.480;8.658;2023-04-24T12:52:35;1.85;;;1.55;;
54853;SDS011;40747;49.480;8.658;2023-04-24T12:55:01;2.45;;;1.88;;
54853;SDS011;40747;49.480;8.658;2023-04-24T12:57:27;3.80;;;2.20;;
54853;SDS011;40747;49.480;8.658;2023-04-24T12:59:54;1.58;;;1.38;;
54853;SDS011;40747;49.480;8.658;2023-04-24T13:02:23;3.28;;;1.88;;
54853;SDS011;40747;49.480;8.658;2023-04-24T13:04:49;2.63;;;1.73;;
54853;SDS011;40747;49.480;8.658;2023-04-24T13:07:16;1.80;;;1.55;;
54853;SDS011;40747;49.480;8.658;2023-04-24T13:09:42;2.40;;;1.98;;
54853;SDS011;40747;49.480;8.658;2023-04-24T13:12:08;2.97;;;1.92;;
54853;SDS011;40747;49.480;8.658;2023-04-24T13:14:35;2.75;;;1.98;;
54853;SDS011;40747;49.480;8.658;2023-04-24T13:17:00;2.72;;;1.77;;
54853;SDS011;40747;49.480;8.658;2023-04-24T13:19:26;4.50;;;2.10;;
54853;SDS011;40747;49.480;8.658;2023-04-24T13:21:52;2.45;;;1.92;;
54853;SDS011;40747;49.480;8.658;2023-04-24T13:24:18;3.88;;;1.80;;
54853;SDS011;40747;49.480;8.658;2023-04-24T13:26:43;2.80;;;1.92;;
54853;SDS011;40747;49.480;8.658;2023-04-24T13:29:08;2.35;;;1.80;;
54853;SDS011;40747;49.480;8.658;2023-04-24T13:31:34;3.05;;;1.90;;
54853;SDS011;40747;49.480;8.658;2023-04-24T13:34:00;2.78;;;1.63;;
54853;SDS011;40747;49.480;8.658;2023-04-24T13:36:27;2.38;;;1.67;;
54853;SDS011;40747;49.480;8.658;2023-04-24T13:38:53;3.78;;;2.15;;
54853;SDS011;40747;49.480;8.658;2023-04-24T13:41:18;3.17;;;1.80;;
54853;SDS011;40747;49.480;8.658;2023-04-24T13:43:44;2.00;;;1.60;;
54853;SDS011;40747;49.480;8.658;2023-04-24T13:46:09;3.05;;;1.98;;
54853;SDS011;40747;49.480;8.658;2023-04-24T13:48:34;2.30;;;1.60;;
54853;SDS011;40747;49.480;8.658;2023-04-24T13:50:59;3.92;;;1.63;;
54853;SDS011;40747;49.480;8.658;2023-04-24T13:53:25;2.92;;;1.75;;
54853;SDS011;40747;49.480;8.658;2023-04-24T13:55:50;2.72;;;1.50;;
54853;SDS011;40747;49.480;8.658;2023-04-24T13:58:16;2.03;;;1.65;;
54853;SDS011;40747;49.480;8.658;2023-04-24T14:00:41;2.45;;;1.95;;
54853;SDS011;40747;49.480;8.658;2023-04-24T14:03:06;5.75;;;2.25;;
54853;SDS011;40747;49.480;8.658;2023-04-24T14:05:32;1.70;;;1.50;;
54853;SDS011;40747;49.480;8.658;2023-04-24T14:07:57;2.47;;;1.52;;
54853;SDS011;40747;49.480;8.658;2023-04-24T14:10:23;2.88;;;1.80;;
54853;SDS011;40747;49.480;8.658;2023-04-24T14:12:48;2.25;;;1.70;;
54853;SDS011;40747;49.480;8.658;2023-04-24T14:15:13;2.70;;;1.70;;
54853;SDS011;40747;49.480;8.658;2023-04-24T14:17:39;4.10;;;2.00;;
54853;SDS011;40747;49.480;8.658;2023-04-24T14:20:04;1.88;;;1.60;;
54853;SDS011;40747;49.480;8.658;2023-04-24T14:22:30;2.95;;;2.00;;
54853;SDS011;40747;49.480;8.658;2023-04-24T14:24:56;3.40;;;2.00;;
54853;SDS011;40747;49.480;8.658;2023-04-24T14:27:21;2.13;;;1.63;;
54853;SDS011;40747;49.480;8.658;2023-04-24T14:29:46;3.95;;;1.60;;
54853;SDS011;40747;49.480;8.658;2023-04-24T14:32:11;2.00;;;1.27;;
54853;SDS011;40747;49.480;8.658;2023-04-24T14:34:39;5.13;;;2.00;;
54853;SDS011;40747;49.480;8.658;2023-04-24T14:37:05;6.10;;;2.25;;
54853;SDS011;40747;49.480;8.658;2023-04-24T14:39:30;2.78;;;1.85;;
54853;SDS011;40747;49.480;8.658;2023-04-24T14:41:55;2.35;;;1.83;;
54853;SDS011;40747;49.480;8.658;2023-04-24T14:44:21;4.25;;;2.63;;
54853;SDS011;40747;49.480;8.658;2023-04-24T14:46:47;3.22;;;2.10;;
54853;SDS011;40747;49.480;8.658;2023-04-24T14:49:13;4.10;;;2.03;;
54853;SDS011;40747;49.480;8.658;2023-04-24T14:51:39;5.28;;;2.38;;
54853;SDS011;40747;49.480;8.658;2023-04-24T14:54:05;1.88;;;1.55;;
54853;SDS011;40747;49.480;8.658;2023-04-24T14:56:31;1.90;;;1.65;;
54853;SDS011;40747;49.480;8.658;2023-04-24T14:58:56;4.68;;;2.20;;
54853;SDS011;40747;49.480;8.658;2023-04-24T15:01:22;3.60;;;2.35;;